sensor_id;sensor_type;location;lat;lon;timestamp;P1;durP1;ratioP1;P2;durP2;ratioP2
15358;SDS011;7779;49.596;11.070;2022-10-16T00:01:04;1.37;;;0.70;;
15358;SDS011;7779;49.596;11.070;2022-10-16T00:03:39;1.20;;;0.90;;
15358;SDS011;7779;49.596;11.070;2022-10-16T00:06:08;1.13;;;0.80;;
15358;SDS011;7779;49.596;11.070;2022-10-16T00:08:36;1.77;;;0.70;;
15358;SDS011;7779;49.596;11.070;2022-10-16T00:11:13;1.13;;;0.70;;
15358;SDS011;7779;49.596;11.070;2022-10-16T00:13:43;0.90;;;0.77;;
15358;SDS011;7779;49.596;11.070;2022-10-16T00:16:11;1.20;;;0.90;;
15358;SDS011;7779;49.596;11.070;2022-10-16T00:18:38;0.70;;;0.70;;
15358;SDS011;7779;49.596;11.070;2022-10-16T00:21:07;2.30;;;0.80;;
15358;SDS011;7779;49.596;11.070;2022-10-16T00:23:40;1.73;;;0.80;;
15358;SDS011;7779;49.596;11.070;2022-10-16T00:26:11;1.20;;;0.70;;
15358;SDS011;7779;49.596;11.070;2022-10-16T00:28:39;1.57;;;0.83;;
15358;SDS011;7779;49.596;11.070;2022-10-16T00:31:06;0.70;;;0.70;;
15358;SDS011;7779;49.596;11.070;2022-10-16T00:33:35;1.87;;;0.73;;
15358;SDS011;7779;49.596;11.070;2022-10-16T00:36:03;1.43;;;0.50;;
15358;SDS011;7779;49.596;11.070;2022-10-16T00:38:31;1.23;;;0.87;;
15358;SDS011;7779;49.596;11.070;2022-10-16T00:40:57;0.70;;;0.70;;
15358;SDS011;7779;49.596;11.070;2022-10-16T00:43:35;1.30;;;0.93;;
15358;SDS011;7779;49.596;11.070;2022-10-16T00:46:11;0.90;;;0.70;;
15358;SDS011;7779;49.596;11.070;2022-10-16T00:49:06;1.73;;;0.87;;
15358;SDS011;7779;49.596;11.070;2022-10-16T00:51:46;1.10;;;0.70;;
15358;SDS011;7779;49.596;11.070;2022-10-16T00:54:26;2.50;;;1.10;;
15358;SDS011;7779;49.596;11.070;2022-10-16T00:56:57;1.03;;;0.80;;
15358;SDS011;7779;49.596;11.070;2022-10-16T00:59:32;1.00;;;0.80;;
15358;SDS011;7779;49.596;11.070;2022-10-16T01:02:02;0.87;;;0.80;;
15358;SDS011;7779;49.596;11.070;2022-10-16T01:04:32;1.40;;;0.67;;
15358;SDS011;7779;49.596;11.070;2022-10-16T01:15:33;1.53;;;0.87;;
15358;SDS011;7779;49.596;11.070;2022-10-16T01:18:27;0.70;;;0.70;;
15358;SDS011;7779;49.596;11.070;2022-10-16T01:21:03;1.30;;;1.00;;
15358;SDS011;7779;49.596;11.070;2022-10-16T01:32:20;1.40;;;0.80;;
15358;SDS011;7779;49.596;11.070;2022-10-16T01:37:46;1.37;;;0.80;;
15358;SDS011;7779;49.596;11.070;2022-10-16T01:40:21;0.87;;;0.70;;
15358;SDS011;7779;49.596;11.070;2022-10-16T01:45:47;2.20;;;0.80;;
15358;SDS011;7779;49.596;11.070;2022-10-16T01:48:16;1.03;;;0.90;;
15358;SDS011;7779;49.596;11.070;2022-10-16T01:50:49;1.77;;;0.90;;
15358;SDS011;7779;49.596;11.070;2022-10-16T01:53:26;1.10;;;0.80;;
15358;SDS011;7779;49.596;11.070;2022-10-16T01:55:52;0.80;;;0.73;;
15358;SDS011;7779;49.596;11.070;2022-10-16T01:58:23;1.30;;;0.80;;
15358;SDS011;7779;49.596;11.070;2022-10-16T02:00:51;1.10;;;0.80;;
15358;SDS011;7779;49.596;11.070;2022-10-16T02:03:22;1.53;;;0.90;;
15358;SDS011;7779;49.596;11.070;2022-10-16T02:05:55;1.07;;;0.80;;
15358;SDS011;7779;49.596;11.070;2022-10-16T02:08:24;0.90;;;0.70;;
15358;SDS011;7779;49.596;11.070;2022-10-16T02:10:54;3.13;;;0.90;;
15358;SDS011;7779;49.596;11.070;2022-10-16T02:13:23;1.37;;;1.07;;
15358;SDS011;7779;49.596;11.070;2022-10-16T02:16:01;1.10;;;0.83;;
15358;SDS011;7779;49.596;11.070;2022-10-16T02:18:26;3.33;;;1.13;;
15358;SDS011;7779;49.596;11.070;2022-10-16T02:26:33;1.60;;;0.90;;
15358;SDS011;7779;49.596;11.070;2022-10-16T02:29:11;2.17;;;0.80;;
15358;SDS011;7779;49.596;11.070;2022-10-16T02:31:43;1.20;;;0.83;;
15358;SDS011;7779;49.596;11.070;2022-10-16T02:34:14;1.10;;;0.80;;
15358;SDS011;7779;49.596;11.070;2022-10-16T02:36:44;1.70;;;0.80;;
15358;SDS011;7779;49.596;11.070;2022-10-16T02:39:12;0.90;;;0.80;;
15358;SDS011;7779;49.596;11.070;2022-10-16T02:41:40;0.83;;;0.83;;
15358;SDS011;7779;49.596;11.070;2022-10-16T02:44:06;0.90;;;0.60;;
15358;SDS011;7779;49.596;11.070;2022-10-16T02:46:31;0.87;;;0.80;;
15358;SDS011;7779;49.596;11.070;2022-10-16T02:48:57;1.13;;;0.90;;
15358;SDS011;7779;49.596;11.070;2022-10-16T02:51:23;4.40;;;1.00;;
15358;SDS011;7779;49.596;11.070;2022-10-16T02:53:48;1.50;;;0.70;;
15358;SDS011;7779;49.596;11.070;2022-10-16T02:56:14;1.47;;;0.90;;
15358;SDS011;7779;49.596;11.070;2022-10-16T02:58:40;0.93;;;0.87;;
15358;SDS011;7779;49.596;11.070;2022-10-16T03:01:06;2.50;;;0.83;;
15358;SDS011;7779;49.596;11.070;2022-10-16T03:03:31;1.00;;;0.90;;
15358;SDS011;7779;49.596;11.070;2022-10-16T03:05:57;1.00;;;0.80;;
15358;SDS011;7779;49.596;11.070;2022-10-16T03:08:23;1.43;;;0.90;;
15358;SDS011;7779;49.596;11.070;2022-10-16T03:10:50;0.77;;;0.70;;
15358;SDS011;7779;49.596;11.070;2022-10-16T03:13:17;1.20;;;0.80;;
15358;SDS011;7779;49.596;11.070;2022-10-16T03:15:45;3.20;;;0.90;;
15358;SDS011;7779;49.596;11.070;2022-10-16T03:18:11;0.87;;;0.80;;
15358;SDS011;7779;49.596;11.070;2022-10-16T03:20:37;1.00;;;0.90;;
15358;SDS011;7779;49.596;11.070;2022-10-16T03:23:02;0.93;;;0.73;;
15358;SDS011;7779;49.596;11.070;2022-10-16T03:25:28;1.23;;;0.90;;
15358;SDS011;7779;49.596;11.070;2022-10-16T03:27:54;1.43;;;0.90;;
15358;SDS011;7779;49.596;11.070;2022-10-16T03:30:20;1.50;;;0.80;;
15358;SDS011;7779;49.596;11.070;2022-10-16T03:32:46;2.00;;;1.00;;
15358;SDS011;7779;49.596;11.070;2022-10-16T03:35:12;1.13;;;0.90;;
15358;SDS011;7779;49.596;11.070;2022-10-16T03:37:38;1.23;;;0.70;;
15358;SDS011;7779;49.596;11.070;2022-10-16T03:40:04;0.70;;;0.70;;
15358;SDS011;7779;49.596;11.070;2022-10-16T03:42:30;0.63;;;0.63;;
15358;SDS011;7779;49.596;11.070;2022-10-16T03:44:56;1.83;;;0.80;;
15358;SDS011;7779;49.596;11.070;2022-10-16T03:47:22;3.17;;;0.90;;
15358;SDS011;7779;49.596;11.070;2022-10-16T03:49:48;2.17;;;0.83;;
15358;SDS011;7779;49.596;11.070;2022-10-16T03:52:15;0.73;;;0.67;;
15358;SDS011;7779;49.596;11.070;2022-10-16T03:54:41;1.20;;;0.70;;
15358;SDS011;7779;49.596;11.070;2022-10-16T03:57:07;0.80;;;0.80;;
15358;SDS011;7779;49.596;11.070;2022-10-16T03:59:32;1.63;;;0.60;;
15358;SDS011;7779;49.596;11.070;2022-10-16T04:01:58;1.43;;;0.70;;
15358;SDS011;7779;49.596;11.070;2022-10-16T04:04:24;1.20;;;0.67;;
15358;SDS011;7779;49.596;11.070;2022-10-16T04:06:50;0.80;;;0.60;;
15358;SDS011;7779;49.596;11.070;2022-10-16T04:09:16;0.50;;;0.50;;
15358;SDS011;7779;49.596;11.070;2022-10-16T04:11:42;2.37;;;0.83;;
15358;SDS011;7779;49.596;11.070;2022-10-16T04:14:08;2.67;;;0.90;;
15358;SDS011;7779;49.596;11.070;2022-10-16T04:16:33;3.10;;;0.70;;
15358;SDS011;7779;49.596;11.070;2022-10-16T04:18:59;1.00;;;0.80;;
15358;SDS011;7779;49.596;11.070;2022-10-16T04:21:25;0.80;;;0.80;;
15358;SDS011;7779;49.596;11.070;2022-10-16T04:23:51;0.67;;;0.67;;
15358;SDS011;7779;49.596;11.070;2022-10-16T04:26:16;0.87;;;0.80;;
15358;SDS011;7779;49.596;11.070;2022-10-16T04:28:42;1.47;;;1.07;;
15358;SDS011;7779;49.596;11.070;2022-10-16T04:31:08;3.70;;;1.00;;
15358;SDS011;7779;49.596;11.070;2022-10-16T04:33:34;1.13;;;1.03;;
15358;SDS011;7779;49.596;11.070;2022-10-16T04:36:00;2.27;;;1.00;;
15358;SDS011;7779;49.596;11.070;2022-10-16T04:38:28;1.50;;;1.27;;
15358;SDS011;7779;49.596;11.070;2022-10-16T04:40:54;1.80;;;1.10;;
15358;SDS011;7779;49.596;11.070;2022-10-16T04:43:20;1.50;;;1.20;;
15358;SDS011;7779;49.596;11.070;2022-10-16T04:45:47;1.23;;;1.13;;
15358;SDS011;7779;49.596;11.070;2022-10-16T04:48:15;1.70;;;1.30;;
15358;SDS011;7779;49.596;11.070;2022-10-16T04:50:41;1.83;;;1.30;;
15358;SDS011;7779;49.596;11.070;2022-10-16T04:53:07;1.77;;;1.20;;
15358;SDS011;7779;49.596;11.070;2022-10-16T04:55:32;2.47;;;1.30;;
15358;SDS011;7779;49.596;11.070;2022-10-16T04:57:58;1.33;;;1.20;;
15358;SDS011;7779;49.596;11.070;2022-10-16T05:00:24;1.20;;;1.10;;
15358;SDS011;7779;49.596;11.070;2022-10-16T05:02:50;2.80;;;1.30;;
15358;SDS011;7779;49.596;11.070;2022-10-16T05:05:16;3.90;;;1.37;;
15358;SDS011;7779;49.596;11.070;2022-10-16T05:07:44;1.07;;;0.97;;
15358;SDS011;7779;49.596;11.070;2022-10-16T05:10:11;1.00;;;0.80;;
15358;SDS011;7779;49.596;11.070;2022-10-16T05:12:37;1.23;;;0.90;;
15358;SDS011;7779;49.596;11.070;2022-10-16T05:15:03;1.43;;;0.87;;
15358;SDS011;7779;49.596;11.070;2022-10-16T05:17:29;0.93;;;0.90;;
15358;SDS011;7779;49.596;11.070;2022-10-16T05:19:55;1.30;;;0.80;;
15358;SDS011;7779;49.596;11.070;2022-10-16T05:22:21;1.00;;;0.90;;
15358;SDS011;7779;49.596;11.070;2022-10-16T05:24:47;1.10;;;1.00;;
15358;SDS011;7779;49.596;11.070;2022-10-16T05:27:12;3.03;;;0.90;;
15358;SDS011;7779;49.596;11.070;2022-10-16T05:29:44;1.33;;;0.90;;
15358;SDS011;7779;49.596;11.070;2022-10-16T05:32:12;0.80;;;0.80;;
15358;SDS011;7779;49.596;11.070;2022-10-16T05:34:40;0.80;;;0.80;;
15358;SDS011;7779;49.596;11.070;2022-10-16T05:37:06;1.80;;;0.90;;
15358;SDS011;7779;49.596;11.070;2022-10-16T05:39:31;2.20;;;1.00;;
15358;SDS011;7779;49.596;11.070;2022-10-16T05:41:57;0.80;;;0.80;;
15358;SDS011;7779;49.596;11.070;2022-10-16T05:44:23;1.60;;;1.07;;
15358;SDS011;7779;49.596;11.070;2022-10-16T05:46:49;2.07;;;0.93;;
15358;SDS011;7779;49.596;11.070;2022-10-16T05:49:14;1.40;;;0.90;;
15358;SDS011;7779;49.596;11.070;2022-10-16T05:51:41;2.10;;;1.20;;
15358;SDS011;7779;49.596;11.070;2022-10-16T05:54:07;2.33;;;1.50;;
15358;SDS011;7779;49.596;11.070;2022-10-16T05:56:34;1.90;;;1.53;;
15358;SDS011;7779;49.596;11.070;2022-10-16T05:58:59;2.27;;;1.50;;
15358;SDS011;7779;49.596;11.070;2022-10-16T06:01:25;2.47;;;1.70;;
15358;SDS011;7779;49.596;11.070;2022-10-16T06:03:51;1.83;;;1.47;;
15358;SDS011;7779;49.596;11.070;2022-10-16T06:06:22;2.80;;;2.03;;
15358;SDS011;7779;49.596;11.070;2022-10-16T06:08:51;2.00;;;1.40;;
15358;SDS011;7779;49.596;11.070;2022-10-16T06:11:20;1.90;;;1.70;;
15358;SDS011;7779;49.596;11.070;2022-10-16T06:13:53;1.60;;;1.40;;
15358;SDS011;7779;49.596;11.070;2022-10-16T06:16:26;1.77;;;1.63;;
15358;SDS011;7779;49.596;11.070;2022-10-16T06:18:54;2.87;;;1.80;;
15358;SDS011;7779;49.596;11.070;2022-10-16T06:21:25;1.90;;;1.60;;
15358;SDS011;7779;49.596;11.070;2022-10-16T06:23:52;1.87;;;1.30;;
15358;SDS011;7779;49.596;11.070;2022-10-16T06:26:20;1.20;;;1.10;;
15358;SDS011;7779;49.596;11.070;2022-10-16T06:28:49;1.67;;;1.13;;
15358;SDS011;7779;49.596;11.070;2022-10-16T06:31:15;1.27;;;1.10;;
15358;SDS011;7779;49.596;11.070;2022-10-16T06:33:42;1.00;;;1.00;;
15358;SDS011;7779;49.596;11.070;2022-10-16T06:36:09;1.07;;;0.83;;
15358;SDS011;7779;49.596;11.070;2022-10-16T06:38:40;0.90;;;0.90;;
15358;SDS011;7779;49.596;11.070;2022-10-16T06:41:07;1.20;;;1.10;;
15358;SDS011;7779;49.596;11.070;2022-10-16T06:43:36;1.37;;;0.83;;
15358;SDS011;7779;49.596;11.070;2022-10-16T06:46:02;2.43;;;1.10;;
15358;SDS011;7779;49.596;11.070;2022-10-16T06:48:30;1.37;;;1.03;;
15358;SDS011;7779;49.596;11.070;2022-10-16T06:53:31;1.57;;;1.20;;
15358;SDS011;7779;49.596;11.070;2022-10-16T06:56:13;2.80;;;1.00;;
15358;SDS011;7779;49.596;11.070;2022-10-16T06:58:42;2.30;;;1.30;;
15358;SDS011;7779;49.596;11.070;2022-10-16T07:01:08;1.50;;;1.40;;
15358;SDS011;7779;49.596;11.070;2022-10-16T07:03:36;1.93;;;1.67;;
15358;SDS011;7779;49.596;11.070;2022-10-16T07:06:04;2.17;;;1.90;;
15358;SDS011;7779;49.596;11.070;2022-10-16T07:08:35;2.53;;;1.60;;
15358;SDS011;7779;49.596;11.070;2022-10-16T07:11:09;2.90;;;1.67;;
15358;SDS011;7779;49.596;11.070;2022-10-16T07:13:39;1.63;;;1.50;;
15358;SDS011;7779;49.596;11.070;2022-10-16T07:16:08;3.30;;;1.63;;
15358;SDS011;7779;49.596;11.070;2022-10-16T07:18:43;3.63;;;1.83;;
15358;SDS011;7779;49.596;11.070;2022-10-16T07:21:15;2.10;;;1.60;;
15358;SDS011;7779;49.596;11.070;2022-10-16T07:23:51;1.70;;;1.50;;
15358;SDS011;7779;49.596;11.070;2022-10-16T07:26:19;1.30;;;1.20;;
15358;SDS011;7779;49.596;11.070;2022-10-16T07:28:46;2.73;;;1.50;;
15358;SDS011;7779;49.596;11.070;2022-10-16T07:31:13;1.70;;;1.40;;
15358;SDS011;7779;49.596;11.070;2022-10-16T07:33:41;1.87;;;1.33;;
15358;SDS011;7779;49.596;11.070;2022-10-16T07:36:09;3.17;;;1.17;;
15358;SDS011;7779;49.596;11.070;2022-10-16T07:38:35;1.30;;;1.20;;
15358;SDS011;7779;49.596;11.070;2022-10-16T07:41:05;1.17;;;1.00;;
15358;SDS011;7779;49.596;11.070;2022-10-16T07:43:33;2.00;;;1.00;;
15358;SDS011;7779;49.596;11.070;2022-10-16T07:45:59;1.63;;;1.20;;
15358;SDS011;7779;49.596;11.070;2022-10-16T07:48:29;1.00;;;0.90;;
15358;SDS011;7779;49.596;11.070;2022-10-16T07:50:57;2.50;;;1.03;;
15358;SDS011;7779;49.596;11.070;2022-10-16T07:53:25;2.93;;;1.00;;
15358;SDS011;7779;49.596;11.070;2022-10-16T07:55:52;1.43;;;0.97;;
15358;SDS011;7779;49.596;11.070;2022-10-16T07:58:31;2.43;;;1.30;;
15358;SDS011;7779;49.596;11.070;2022-10-16T08:00:59;2.53;;;1.00;;
15358;SDS011;7779;49.596;11.070;2022-10-16T08:03:30;0.90;;;0.90;;
15358;SDS011;7779;49.596;11.070;2022-10-16T08:05:57;2.13;;;1.13;;
15358;SDS011;7779;49.596;11.070;2022-10-16T08:08:23;1.93;;;1.20;;
15358;SDS011;7779;49.596;11.070;2022-10-16T08:10:49;2.63;;;1.10;;
15358;SDS011;7779;49.596;11.070;2022-10-16T08:13:15;1.97;;;1.20;;
15358;SDS011;7779;49.596;11.070;2022-10-16T08:15:41;0.90;;;0.90;;
15358;SDS011;7779;49.596;11.070;2022-10-16T08:18:08;1.10;;;1.00;;
15358;SDS011;7779;49.596;11.070;2022-10-16T08:20:36;2.30;;;1.30;;
15358;SDS011;7779;49.596;11.070;2022-10-16T08:23:02;1.53;;;1.37;;
15358;SDS011;7779;49.596;11.070;2022-10-16T08:25:28;1.87;;;1.20;;
15358;SDS011;7779;49.596;11.070;2022-10-16T08:27:54;1.97;;;1.23;;
15358;SDS011;7779;49.596;11.070;2022-10-16T08:30:21;1.10;;;0.90;;
15358;SDS011;7779;49.596;11.070;2022-10-16T08:32:48;1.57;;;1.20;;
15358;SDS011;7779;49.596;11.070;2022-10-16T08:35:15;2.20;;;1.20;;
15358;SDS011;7779;49.596;11.070;2022-10-16T08:37:41;2.60;;;1.10;;
15358;SDS011;7779;49.596;11.070;2022-10-16T08:48:26;2.17;;;1.20;;
15358;SDS011;7779;49.596;11.070;2022-10-16T08:51:02;1.27;;;0.90;;
15358;SDS011;7779;49.596;11.070;2022-10-16T08:53:30;1.50;;;1.00;;
15358;SDS011;7779;49.596;11.070;2022-10-16T08:56:07;1.20;;;1.07;;
15358;SDS011;7779;49.596;11.070;2022-10-16T08:58:33;2.27;;;1.07;;
15358;SDS011;7779;49.596;11.070;2022-10-16T09:01:11;0.87;;;0.83;;
15358;SDS011;7779;49.596;11.070;2022-10-16T09:03:55;1.70;;;1.00;;
15358;SDS011;7779;49.596;11.070;2022-10-16T09:06:57;1.70;;;0.90;;
15358;SDS011;7779;49.596;11.070;2022-10-16T09:12:45;1.03;;;0.87;;
15358;SDS011;7779;49.596;11.070;2022-10-16T09:15:39;1.10;;;0.80;;
15358;SDS011;7779;49.596;11.070;2022-10-16T09:18:12;1.00;;;0.90;;
15358;SDS011;7779;49.596;11.070;2022-10-16T09:23:45;1.70;;;1.20;;
15358;SDS011;7779;49.596;11.070;2022-10-16T09:26:13;1.20;;;1.03;;
15358;SDS011;7779;49.596;11.070;2022-10-16T09:28:41;4.43;;;1.33;;
15358;SDS011;7779;49.596;11.070;2022-10-16T09:31:14;3.43;;;1.20;;
15358;SDS011;7779;49.596;11.070;2022-10-16T09:33:45;0.87;;;0.80;;
15358;SDS011;7779;49.596;11.070;2022-10-16T09:36:16;0.80;;;0.80;;
15358;SDS011;7779;49.596;11.070;2022-10-16T09:38:44;1.63;;;1.00;;
15358;SDS011;7779;49.596;11.070;2022-10-16T09:46:24;2.50;;;0.77;;
15358;SDS011;7779;49.596;11.070;2022-10-16T09:48:57;2.13;;;0.80;;
15358;SDS011;7779;49.596;11.070;2022-10-16T09:51:32;1.10;;;1.00;;
15358;SDS011;7779;49.596;11.070;2022-10-16T09:54:02;1.33;;;1.13;;
15358;SDS011;7779;49.596;11.070;2022-10-16T09:56:32;1.50;;;1.10;;
15358;SDS011;7779;49.596;11.070;2022-10-16T09:59:03;1.73;;;0.90;;
15358;SDS011;7779;49.596;11.070;2022-10-16T10:01:38;1.70;;;1.00;;
15358;SDS011;7779;49.596;11.070;2022-10-16T10:04:11;1.10;;;1.00;;
15358;SDS011;7779;49.596;11.070;2022-10-16T10:06:41;1.47;;;1.17;;
15358;SDS011;7779;49.596;11.070;2022-10-16T10:09:27;1.50;;;1.00;;
15358;SDS011;7779;49.596;11.070;2022-10-16T10:12:04;1.23;;;0.87;;
15358;SDS011;7779;49.596;11.070;2022-10-16T10:14:46;0.97;;;0.90;;
15358;SDS011;7779;49.596;11.070;2022-10-16T10:17:25;0.90;;;0.90;;
15358;SDS011;7779;49.596;11.070;2022-10-16T10:22:41;1.73;;;1.10;;
15358;SDS011;7779;49.596;11.070;2022-10-16T10:30:11;2.03;;;1.17;;
15358;SDS011;7779;49.596;11.070;2022-10-16T10:38:51;1.60;;;1.03;;
15358;SDS011;7779;49.596;11.070;2022-10-16T10:46:51;1.97;;;1.30;;
15358;SDS011;7779;49.596;11.070;2022-10-16T10:49:51;2.20;;;1.40;;
15358;SDS011;7779;49.596;11.070;2022-10-16T11:01:56;1.83;;;1.20;;
15358;SDS011;7779;49.596;11.070;2022-10-16T11:05:01;1.60;;;1.27;;
15358;SDS011;7779;49.596;11.070;2022-10-16T11:08:14;1.50;;;1.30;;
15358;SDS011;7779;49.596;11.070;2022-10-16T11:16:27;1.50;;;1.03;;
15358;SDS011;7779;49.596;11.070;2022-10-16T11:19:33;1.00;;;0.90;;
15358;SDS011;7779;49.596;11.070;2022-10-16T11:22:12;1.30;;;1.10;;
15358;SDS011;7779;49.596;11.070;2022-10-16T11:24:59;1.93;;;1.07;;
15358;SDS011;7779;49.596;11.070;2022-10-16T11:30:41;0.93;;;0.83;;
15358;SDS011;7779;49.596;11.070;2022-10-16T11:36:17;1.70;;;1.03;;
15358;SDS011;7779;49.596;11.070;2022-10-16T11:48:02;4.17;;;1.00;;
15358;SDS011;7779;49.596;11.070;2022-10-16T11:51:13;1.50;;;0.90;;
15358;SDS011;7779;49.596;11.070;2022-10-16T11:53:52;1.23;;;1.00;;
15358;SDS011;7779;49.596;11.070;2022-10-16T11:56:27;1.20;;;1.10;;
15358;SDS011;7779;49.596;11.070;2022-10-16T11:58:58;1.10;;;1.00;;
15358;SDS011;7779;49.596;11.070;2022-10-16T12:01:48;2.17;;;1.40;;
15358;SDS011;7779;49.596;11.070;2022-10-16T12:04:46;1.63;;;1.10;;
15358;SDS011;7779;49.596;11.070;2022-10-16T12:07:26;4.20;;;1.47;;
15358;SDS011;7779;49.596;11.070;2022-10-16T12:10:09;2.20;;;1.40;;
15358;SDS011;7779;49.596;11.070;2022-10-16T12:13:02;1.00;;;0.90;;
15358;SDS011;7779;49.596;11.070;2022-10-16T12:16:03;1.40;;;0.87;;
15358;SDS011;7779;49.596;11.070;2022-10-16T12:18:33;1.30;;;0.90;;
15358;SDS011;7779;49.596;11.070;2022-10-16T12:20:59;2.03;;;1.10;;
15358;SDS011;7779;49.596;11.070;2022-10-16T12:23:31;1.13;;;0.90;;
15358;SDS011;7779;49.596;11.070;2022-10-16T12:26:12;1.03;;;0.90;;
15358;SDS011;7779;49.596;11.070;2022-10-16T12:28:38;2.63;;;0.80;;
15358;SDS011;7779;49.596;11.070;2022-10-16T12:31:06;1.43;;;1.10;;
15358;SDS011;7779;49.596;11.070;2022-10-16T12:33:41;1.13;;;0.90;;
15358;SDS011;7779;49.596;11.070;2022-10-16T12:36:29;1.37;;;1.00;;
15358;SDS011;7779;49.596;11.070;2022-10-16T12:38:59;0.80;;;0.80;;
15358;SDS011;7779;49.596;11.070;2022-10-16T12:41:30;2.20;;;1.20;;
15358;SDS011;7779;49.596;11.070;2022-10-16T12:43:59;1.03;;;0.93;;
15358;SDS011;7779;49.596;11.070;2022-10-16T12:49:06;1.03;;;0.83;;
15358;SDS011;7779;49.596;11.070;2022-10-16T12:51:38;2.03;;;0.90;;
15358;SDS011;7779;49.596;11.070;2022-10-16T13:05:47;0.90;;;0.87;;
15358;SDS011;7779;49.596;11.070;2022-10-16T13:08:51;1.43;;;0.97;;
15358;SDS011;7779;49.596;11.070;2022-10-16T13:22:59;1.00;;;0.90;;
15358;SDS011;7779;49.596;11.070;2022-10-16T13:28:29;1.17;;;1.03;;
15358;SDS011;7779;49.596;11.070;2022-10-16T13:30:58;2.30;;;0.90;;
15358;SDS011;7779;49.596;11.070;2022-10-16T13:33:30;1.87;;;0.80;;
15358;SDS011;7779;49.596;11.070;2022-10-16T13:36:05;1.83;;;0.90;;
15358;SDS011;7779;49.596;11.070;2022-10-16T13:38:34;1.00;;;0.90;;
15358;SDS011;7779;49.596;11.070;2022-10-16T13:41:05;2.50;;;0.80;;
15358;SDS011;7779;49.596;11.070;2022-10-16T13:43:41;1.37;;;1.20;;
15358;SDS011;7779;49.596;11.070;2022-10-16T13:46:16;1.40;;;0.80;;
15358;SDS011;7779;49.596;11.070;2022-10-16T13:48:55;1.00;;;0.90;;
15358;SDS011;7779;49.596;11.070;2022-10-16T13:51:27;0.80;;;0.80;;
15358;SDS011;7779;49.596;11.070;2022-10-16T13:53:56;1.00;;;0.87;;
15358;SDS011;7779;49.596;11.070;2022-10-16T13:56:25;0.93;;;0.83;;
15358;SDS011;7779;49.596;11.070;2022-10-16T13:59:00;1.10;;;1.00;;
15358;SDS011;7779;49.596;11.070;2022-10-16T14:01:41;1.10;;;1.00;;
15358;SDS011;7779;49.596;11.070;2022-10-16T14:04:10;0.93;;;0.90;;
15358;SDS011;7779;49.596;11.070;2022-10-16T14:06:42;1.00;;;0.80;;
15358;SDS011;7779;49.596;11.070;2022-10-16T14:09:23;1.50;;;0.87;;
15358;SDS011;7779;49.596;11.070;2022-10-16T14:12:03;1.73;;;0.90;;
15358;SDS011;7779;49.596;11.070;2022-10-16T14:14:39;1.60;;;1.00;;
15358;SDS011;7779;49.596;11.070;2022-10-16T14:17:30;1.20;;;1.10;;
15358;SDS011;7779;49.596;11.070;2022-10-16T14:20:01;1.20;;;1.10;;
15358;SDS011;7779;49.596;11.070;2022-10-16T14:22:40;2.10;;;1.00;;
15358;SDS011;7779;49.596;11.070;2022-10-16T14:27:45;1.00;;;0.90;;
15358;SDS011;7779;49.596;11.070;2022-10-16T14:30:24;1.10;;;1.00;;
15358;SDS011;7779;49.596;11.070;2022-10-16T14:32:54;1.07;;;0.97;;
15358;SDS011;7779;49.596;11.070;2022-10-16T14:37:58;0.90;;;0.90;;
15358;SDS011;7779;49.596;11.070;2022-10-16T14:40:27;1.30;;;0.90;;
15358;SDS011;7779;49.596;11.070;2022-10-16T14:42:56;0.80;;;0.80;;
15358;SDS011;7779;49.596;11.070;2022-10-16T14:45:33;0.80;;;0.80;;
15358;SDS011;7779;49.596;11.070;2022-10-16T14:48:01;1.67;;;1.00;;
15358;SDS011;7779;49.596;11.070;2022-10-16T14:50:39;1.23;;;0.97;;
15358;SDS011;7779;49.596;11.070;2022-10-16T14:53:12;0.83;;;0.83;;
15358;SDS011;7779;49.596;11.070;2022-10-16T14:55:38;1.03;;;0.90;;
15358;SDS011;7779;49.596;11.070;2022-10-16T14:58:07;1.77;;;1.00;;
15358;SDS011;7779;49.596;11.070;2022-10-16T15:00:41;0.93;;;0.80;;
15358;SDS011;7779;49.596;11.070;2022-10-16T15:03:07;1.90;;;1.07;;
15358;SDS011;7779;49.596;11.070;2022-10-16T15:05:33;2.00;;;0.87;;
15358;SDS011;7779;49.596;11.070;2022-10-16T15:07:58;1.20;;;1.00;;
15358;SDS011;7779;49.596;11.070;2022-10-16T15:10:25;1.83;;;1.57;;
15358;SDS011;7779;49.596;11.070;2022-10-16T15:12:53;3.00;;;1.90;;
15358;SDS011;7779;49.596;11.070;2022-10-16T15:17:48;4.13;;;2.57;;
15358;SDS011;7779;49.596;11.070;2022-10-16T15:20:18;2.67;;;1.93;;
15358;SDS011;7779;49.596;11.070;2022-10-16T15:22:45;2.47;;;1.60;;
15358;SDS011;7779;49.596;11.070;2022-10-16T15:25:32;1.40;;;1.13;;
15358;SDS011;7779;49.596;11.070;2022-10-16T15:28:19;2.97;;;1.37;;
15358;SDS011;7779;49.596;11.070;2022-10-16T15:30:48;1.63;;;1.20;;
15358;SDS011;7779;49.596;11.070;2022-10-16T15:33:17;1.77;;;1.27;;
15358;SDS011;7779;49.596;11.070;2022-10-16T15:35:48;1.47;;;1.03;;
15358;SDS011;7779;49.596;11.070;2022-10-16T15:38:18;1.73;;;1.50;;
15358;SDS011;7779;49.596;11.070;2022-10-16T15:40:47;1.47;;;1.30;;
15358;SDS011;7779;49.596;11.070;2022-10-16T15:43:14;1.83;;;1.40;;
15358;SDS011;7779;49.596;11.070;2022-10-16T15:45:40;1.67;;;1.50;;
15358;SDS011;7779;49.596;11.070;2022-10-16T15:48:06;1.60;;;1.50;;
15358;SDS011;7779;49.596;11.070;2022-10-16T15:50:35;5.03;;;2.20;;
15358;SDS011;7779;49.596;11.070;2022-10-16T15:53:03;1.97;;;1.77;;
15358;SDS011;7779;49.596;11.070;2022-10-16T15:55:29;3.20;;;2.10;;
15358;SDS011;7779;49.596;11.070;2022-10-16T15:57:55;5.43;;;3.70;;
15358;SDS011;7779;49.596;11.070;2022-10-16T16:00:20;8.40;;;5.07;;
15358;SDS011;7779;49.596;11.070;2022-10-16T16:02:51;6.93;;;4.40;;
15358;SDS011;7779;49.596;11.070;2022-10-16T16:05:19;6.60;;;3.87;;
15358;SDS011;7779;49.596;11.070;2022-10-16T16:07:47;4.03;;;3.10;;
15358;SDS011;7779;49.596;11.070;2022-10-16T16:10:13;4.00;;;2.37;;
15358;SDS011;7779;49.596;11.070;2022-10-16T16:12:39;1.93;;;1.60;;
15358;SDS011;7779;49.596;11.070;2022-10-16T16:15:05;3.00;;;1.60;;
15358;SDS011;7779;49.596;11.070;2022-10-16T16:17:34;2.83;;;1.60;;
15358;SDS011;7779;49.596;11.070;2022-10-16T16:20:01;2.10;;;1.50;;
15358;SDS011;7779;49.596;11.070;2022-10-16T16:22:29;3.77;;;1.93;;
15358;SDS011;7779;49.596;11.070;2022-10-16T16:24:55;2.53;;;1.50;;
15358;SDS011;7779;49.596;11.070;2022-10-16T16:27:21;2.23;;;1.80;;
15358;SDS011;7779;49.596;11.070;2022-10-16T16:29:46;3.20;;;2.00;;
15358;SDS011;7779;49.596;11.070;2022-10-16T16:32:12;3.77;;;2.40;;
15358;SDS011;7779;49.596;11.070;2022-10-16T16:34:38;3.73;;;2.80;;
15358;SDS011;7779;49.596;11.070;2022-10-16T16:37:04;2.37;;;2.10;;
15358;SDS011;7779;49.596;11.070;2022-10-16T16:39:29;5.13;;;2.50;;
15358;SDS011;7779;49.596;11.070;2022-10-16T16:41:58;2.50;;;2.20;;
15358;SDS011;7779;49.596;11.070;2022-10-16T16:44:24;4.80;;;2.40;;
15358;SDS011;7779;49.596;11.070;2022-10-16T16:46:50;3.07;;;2.00;;
15358;SDS011;7779;49.596;11.070;2022-10-16T16:49:16;2.97;;;2.00;;
15358;SDS011;7779;49.596;11.070;2022-10-16T16:51:42;3.70;;;2.10;;
15358;SDS011;7779;49.596;11.070;2022-10-16T16:54:09;3.10;;;2.40;;
15358;SDS011;7779;49.596;11.070;2022-10-16T16:56:37;2.60;;;2.33;;
15358;SDS011;7779;49.596;11.070;2022-10-16T16:59:04;2.87;;;2.00;;
15358;SDS011;7779;49.596;11.070;2022-10-16T17:01:30;3.97;;;2.30;;
15358;SDS011;7779;49.596;11.070;2022-10-16T17:03:57;2.13;;;1.93;;
15358;SDS011;7779;49.596;11.070;2022-10-16T17:06:26;5.43;;;2.30;;
15358;SDS011;7779;49.596;11.070;2022-10-16T17:08:54;2.23;;;2.03;;
15358;SDS011;7779;49.596;11.070;2022-10-16T17:11:21;2.30;;;2.10;;
15358;SDS011;7779;49.596;11.070;2022-10-16T17:13:51;3.00;;;2.43;;
15358;SDS011;7779;49.596;11.070;2022-10-16T17:16:19;5.00;;;2.93;;
15358;SDS011;7779;49.596;11.070;2022-10-16T17:18:46;3.13;;;2.40;;
15358;SDS011;7779;49.596;11.070;2022-10-16T17:21:12;2.60;;;2.40;;
15358;SDS011;7779;49.596;11.070;2022-10-16T17:23:38;2.57;;;2.03;;
15358;SDS011;7779;49.596;11.070;2022-10-16T17:26:08;3.70;;;2.40;;